sensor_id;sensor_type;location;lat;lon;timestamp;P1;durP1;ratioP1;P2;durP2;ratioP2
37221;SDS011;23119;51.842;-2.230;2022-12-10T00:01:39;14.98;;;4.28;;
37221;SDS011;23119;51.842;-2.230;2022-12-10T00:04:07;12.90;;;4.82;;
37221;SDS011;23119;51.842;-2.230;2022-12-10T00:06:34;12.23;;;5.63;;
37221;SDS011;23119;51.842;-2.230;2022-12-10T00:09:01;12.77;;;4.55;;
37221;SDS011;23119;51.842;-2.230;2022-12-10T00:11:28;12.52;;;5.03;;
37221;SDS011;23119;51.842;-2.230;2022-12-10T00:13:59;12.05;;;4.97;;
37221;SDS011;23119;51.842;-2.230;2022-12-10T00:16:28;11.75;;;4.85;;
37221;SDS011;23119;51.842;-2.230;2022-12-10T00:19:00;17.70;;;5.40;;
37221;SDS011;23119;51.842;-2.230;2022-12-10T00:21:30;7.05;;;3.65;;
37221;SDS011;23119;51.842;-2.230;2022-12-10T00:24:06;15.40;;;4.97;;
37221;SDS011;23119;51.842;-2.230;2022-12-10T00:26:34;10.98;;;4.18;;
37221;SDS011;23119;51.842;-2.230;2022-12-10T00:29:04;10.43;;;4.32;;
37221;SDS011;23119;51.842;-2.230;2022-12-10T00:31:33;12.48;;;4.70;;
37221;SDS011;23119;51.842;-2.230;2022-12-10T00:34:02;12.25;;;4.38;;
37221;SDS011;23119;51.842;-2.230;2022-12-10T00:36:37;8.18;;;3.67;;
37221;SDS011;23119;51.842;-2.230;2022-12-10T00:39:07;9.57;;;3.38;;
37221;SDS011;23119;51.842;-2.230;2022-12-10T00:41:36;10.15;;;3.80;;
37221;SDS011;23119;51.842;-2.230;2022-12-10T00:44:02;11.48;;;4.15;;
37221;SDS011;23119;51.842;-2.230;2022-12-10T00:46:28;14.18;;;5.50;;
37221;SDS011;23119;51.842;-2.230;2022-12-10T00:48:54;9.38;;;4.35;;
37221;SDS011;23119;51.842;-2.230;2022-12-10T00:51:21;8.65;;;4.13;;
37221;SDS011;23119;51.842;-2.230;2022-12-10T00:53:48;7.88;;;3.25;;
37221;SDS011;23119;51.842;-2.230;2022-12-10T00:56:17;6.13;;;2.85;;
37221;SDS011;23119;51.842;-2.230;2022-12-10T00:58:44;9.27;;;2.80;;
37221;SDS011;23119;51.842;-2.230;2022-12-10T01:01:18;8.20;;;2.88;;
37221;SDS011;23119;51.842;-2.230;2022-12-10T01:03:49;5.97;;;2.60;;
37221;SDS011;23119;51.842;-2.230;2022-12-10T01:08:56;10.38;;;3.35;;
37221;SDS011;23119;51.842;-2.230;2022-12-10T01:11:25;13.60;;;3.85;;
37221;SDS011;23119;51.842;-2.230;2022-12-10T01:13:58;8.07;;;2.92;;
37221;SDS011;23119;51.842;-2.230;2022-12-10T01:16:24;7.07;;;3.67;;
37221;SDS011;23119;51.842;-2.230;2022-12-10T01:18:54;10.45;;;3.08;;
37221;SDS011;23119;51.842;-2.230;2022-12-10T01:21:24;9.85;;;2.92;;
37221;SDS011;23119;51.842;-2.230;2022-12-10T01:23:51;6.13;;;2.83;;
37221;SDS011;23119;51.842;-2.230;2022-12-10T01:26:18;12.10;;;3.28;;
37221;SDS011;23119;51.842;-2.230;2022-12-10T01:28:53;7.03;;;2.53;;
37221;SDS011;23119;51.842;-2.230;2022-12-10T01:31:20;7.18;;;2.10;;
37221;SDS011;23119;51.842;-2.230;2022-12-10T01:33:50;11.90;;;2.67;;
37221;SDS011;23119;51.842;-2.230;2022-12-10T01:36:22;5.40;;;2.08;;
37221;SDS011;23119;51.842;-2.230;2022-12-10T01:38:52;9.82;;;2.15;;
37221;SDS011;23119;51.842;-2.230;2022-12-10T01:41:21;5.07;;;2.30;;
37221;SDS011;23119;51.842;-2.230;2022-12-10T01:46:19;7.50;;;2.25;;
37221;SDS011;23119;51.842;-2.230;2022-12-10T01:48:51;5.78;;;2.35;;
37221;SDS011;23119;51.842;-2.230;2022-12-10T01:51:20;7.45;;;2.72;;
37221;SDS011;23119;51.842;-2.230;2022-12-10T01:53:46;5.18;;;3.10;;
37221;SDS011;23119;51.842;-2.230;2022-12-10T01:56:14;6.25;;;2.03;;
37221;SDS011;23119;51.842;-2.230;2022-12-10T01:59:00;5.95;;;2.45;;
37221;SDS011;23119;51.842;-2.230;2022-12-10T02:09:28;8.10;;;2.35;;
37221;SDS011;23119;51.842;-2.230;2022-12-10T02:12:22;10.20;;;2.90;;
37221;SDS011;23119;51.842;-2.230;2022-12-10T02:15:05;8.25;;;2.15;;
37221;SDS011;23119;51.842;-2.230;2022-12-10T02:17:48;4.68;;;1.77;;
37221;SDS011;23119;51.842;-2.230;2022-12-10T02:20:22;6.03;;;1.20;;
37221;SDS011;23119;51.842;-2.230;2022-12-10T02:22:57;4.25;;;1.50;;
37221;SDS011;23119;51.842;-2.230;2022-12-10T02:29:01;4.93;;;1.52;;
37221;SDS011;23119;51.842;-2.230;2022-12-10T02:31:37;11.13;;;2.10;;
37221;SDS011;23119;51.842;-2.230;2022-12-10T02:34:07;4.68;;;1.58;;
37221;SDS011;23119;51.842;-2.230;2022-12-10T02:36:41;6.70;;;1.42;;
37221;SDS011;23119;51.842;-2.230;2022-12-10T02:39:15;12.15;;;2.08;;
37221;SDS011;23119;51.842;-2.230;2022-12-10T02:41:50;2.75;;;1.05;;
37221;SDS011;23119;51.842;-2.230;2022-12-10T02:44:21;3.40;;;1.20;;
37221;SDS011;23119;51.842;-2.230;2022-12-10T02:46:52;4.00;;;1.20;;
37221;SDS011;23119;51.842;-2.230;2022-12-10T02:49:21;3.95;;;1.30;;
37221;SDS011;23119;51.842;-2.230;2022-12-10T02:51:52;3.97;;;1.05;;
37221;SDS011;23119;51.842;-2.230;2022-12-10T02:54:35;5.40;;;1.90;;
37221;SDS011;23119;51.842;-2.230;2022-12-10T02:57:15;4.60;;;1.48;;
37221;SDS011;23119;51.842;-2.230;2022-12-10T03:11:18;6.03;;;2.40;;
37221;SDS011;23119;51.842;-2.230;2022-12-10T03:13:54;5.60;;;1.60;;
37221;SDS011;23119;51.842;-2.230;2022-12-10T03:16:28;5.88;;;1.60;;
37221;SDS011;23119;51.842;-2.230;2022-12-10T03:19:00;5.35;;;2.05;;
37221;SDS011;23119;51.842;-2.230;2022-12-10T03:21:29;5.60;;;2.08;;
37221;SDS011;23119;51.842;-2.230;2022-12-10T03:23:57;5.80;;;1.38;;
37221;SDS011;23119;51.842;-2.230;2022-12-10T03:26:26;6.82;;;2.08;;
37221;SDS011;23119;51.842;-2.230;2022-12-10T03:28:54;5.32;;;2.33;;
37221;SDS011;23119;51.842;-2.230;2022-12-10T03:31:35;4.68;;;2.13;;
37221;SDS011;23119;51.842;-2.230;2022-12-10T03:34:09;9.05;;;2.28;;
37221;SDS011;23119;51.842;-2.230;2022-12-10T03:36:39;5.55;;;2.22;;
37221;SDS011;23119;51.842;-2.230;2022-12-10T03:39:25;5.68;;;1.88;;
37221;SDS011;23119;51.842;-2.230;2022-12-10T03:41:54;7.10;;;2.45;;
37221;SDS011;23119;51.842;-2.230;2022-12-10T03:44:27;4.28;;;2.50;;
37221;SDS011;23119;51.842;-2.230;2022-12-10T03:46:56;6.38;;;2.90;;
37221;SDS011;23119;51.842;-2.230;2022-12-10T03:49:22;7.03;;;2.63;;
37221;SDS011;23119;51.842;-2.230;2022-12-10T03:51:48;6.45;;;2.10;;
37221;SDS011;23119;51.842;-2.230;2022-12-10T03:54:18;4.95;;;2.50;;
37221;SDS011;23119;51.842;-2.230;2022-12-10T03:56:47;10.27;;;2.75;;
37221;SDS011;23119;51.842;-2.230;2022-12-10T03:59:15;9.88;;;2.95;;
37221;SDS011;23119;51.842;-2.230;2022-12-10T04:01:44;5.15;;;2.95;;
37221;SDS011;23119;51.842;-2.230;2022-12-10T04:04:10;8.70;;;3.10;;
37221;SDS011;23119;51.842;-2.230;2022-12-10T04:06:40;11.85;;;3.58;;
37221;SDS011;23119;51.842;-2.230;2022-12-10T04:09:14;12.43;;;3.42;;
37221;SDS011;23119;51.842;-2.230;2022-12-10T04:11:40;10.02;;;4.28;;
37221;SDS011;23119;51.842;-2.230;2022-12-10T04:14:09;13.95;;;4.22;;
37221;SDS011;23119;51.842;-2.230;2022-12-10T04:16:54;8.82;;;3.35;;
37221;SDS011;23119;51.842;-2.230;2022-12-10T04:19:20;6.50;;;3.42;;
37221;SDS011;23119;51.842;-2.230;2022-12-10T04:21:48;9.25;;;3.35;;
37221;SDS011;23119;51.842;-2.230;2022-12-10T04:24:34;7.53;;;2.58;;
37221;SDS011;23119;51.842;-2.230;2022-12-10T04:27:22;6.80;;;2.30;;
37221;SDS011;23119;51.842;-2.230;2022-12-10T04:29:53;5.35;;;2.50;;
37221;SDS011;23119;51.842;-2.230;2022-12-10T04:32:19;7.70;;;2.40;;
37221;SDS011;23119;51.842;-2.230;2022-12-10T04:34:46;5.50;;;2.20;;
37221;SDS011;23119;51.842;-2.230;2022-12-10T04:37:17;4.07;;;1.67;;
37221;SDS011;23119;51.842;-2.230;2022-12-10T04:39:43;7.65;;;1.70;;
37221;SDS011;23119;51.842;-2.230;2022-12-10T04:42:10;7.68;;;1.67;;
37221;SDS011;23119;51.842;-2.230;2022-12-10T04:44:41;4.78;;;1.60;;
37221;SDS011;23119;51.842;-2.230;2022-12-10T04:47:09;8.77;;;1.65;;
37221;SDS011;23119;51.842;-2.230;2022-12-10T04:49:36;3.40;;;1.38;;
37221;SDS011;23119;51.842;-2.230;2022-12-10T04:52:13;7.05;;;3.10;;
37221;SDS011;23119;51.842;-2.230;2022-12-10T04:54:42;6.55;;;1.70;;
37221;SDS011;23119;51.842;-2.230;2022-12-10T04:57:08;5.60;;;1.50;;
37221;SDS011;23119;51.842;-2.230;2022-12-10T04:59:39;4.13;;;2.00;;
37221;SDS011;23119;51.842;-2.230;2022-12-10T05:02:10;4.15;;;1.60;;
37221;SDS011;23119;51.842;-2.230;2022-12-10T05:04:38;6.13;;;2.10;;
37221;SDS011;23119;51.842;-2.230;2022-12-10T05:07:06;4.20;;;1.40;;
37221;SDS011;23119;51.842;-2.230;2022-12-10T05:09:37;4.35;;;1.67;;
37221;SDS011;23119;51.842;-2.230;2022-12-10T05:12:05;7.35;;;2.30;;
37221;SDS011;23119;51.842;-2.230;2022-12-10T05:14:50;4.38;;;1.92;;
37221;SDS011;23119;51.842;-2.230;2022-12-10T05:17:19;7.22;;;1.75;;
37221;SDS011;23119;51.842;-2.230;2022-12-10T05:19:47;7.03;;;2.05;;
37221;SDS011;23119;51.842;-2.230;2022-12-10T05:22:17;6.05;;;2.22;;
37221;SDS011;23119;51.842;-2.230;2022-12-10T05:25:01;4.68;;;2.17;;
37221;SDS011;23119;51.842;-2.230;2022-12-10T05:27:30;8.93;;;2.97;;
37221;SDS011;23119;51.842;-2.230;2022-12-10T05:29:57;6.65;;;3.55;;
37221;SDS011;23119;51.842;-2.230;2022-12-10T05:32:25;7.97;;;3.60;;
37221;SDS011;23119;51.842;-2.230;2022-12-10T05:34:51;9.75;;;4.00;;
37221;SDS011;23119;51.842;-2.230;2022-12-10T05:37:17;9.45;;;4.03;;
37221;SDS011;23119;51.842;-2.230;2022-12-10T05:39:42;11.45;;;4.35;;
37221;SDS011;23119;51.842;-2.230;2022-12-10T05:42:08;13.18;;;5.00;;
37221;SDS011;23119;51.842;-2.230;2022-12-10T05:44:36;9.70;;;4.72;;
37221;SDS011;23119;51.842;-2.230;2022-12-10T05:47:04;13.43;;;5.32;;
37221;SDS011;23119;51.842;-2.230;2022-12-10T05:49:33;18.02;;;5.32;;
37221;SDS011;23119;51.842;-2.230;2022-12-10T05:52:01;12.85;;;6.07;;
37221;SDS011;23119;51.842;-2.230;2022-12-10T05:54:27;11.52;;;6.25;;
37221;SDS011;23119;51.842;-2.230;2022-12-10T05:56:54;17.52;;;7.85;;
37221;SDS011;23119;51.842;-2.230;2022-12-10T05:59:20;22.67;;;9.15;;
37221;SDS011;23119;51.842;-2.230;2022-12-10T06:01:55;19.02;;;8.40;;
37221;SDS011;23119;51.842;-2.230;2022-12-10T06:04:23;17.15;;;8.90;;
37221;SDS011;23119;51.842;-2.230;2022-12-10T06:06:49;19.42;;;9.60;;
37221;SDS011;23119;51.842;-2.230;2022-12-10T06:09:15;22.23;;;9.52;;
37221;SDS011;23119;51.842;-2.230;2022-12-10T06:11:43;18.83;;;9.82;;
37221;SDS011;23119;51.842;-2.230;2022-12-10T06:14:09;19.58;;;10.05;;
37221;SDS011;23119;51.842;-2.230;2022-12-10T06:16:38;17.98;;;11.00;;
37221;SDS011;23119;51.842;-2.230;2022-12-10T06:19:06;21.42;;;10.80;;
37221;SDS011;23119;51.842;-2.230;2022-12-10T06:21:37;21.77;;;10.98;;
37221;SDS011;23119;51.842;-2.230;2022-12-10T06:24:03;20.98;;;11.77;;
37221;SDS011;23119;51.842;-2.230;2022-12-10T06:26:31;19.83;;;10.68;;
37221;SDS011;23119;51.842;-2.230;2022-12-10T06:28:56;20.98;;;10.57;;
37221;SDS011;23119;51.842;-2.230;2022-12-10T06:31:22;23.15;;;11.77;;
37221;SDS011;23119;51.842;-2.230;2022-12-10T06:33:48;23.52;;;12.45;;
37221;SDS011;23119;51.842;-2.230;2022-12-10T06:36:18;25.92;;;11.52;;
37221;SDS011;23119;51.842;-2.230;2022-12-10T06:38:44;23.63;;;12.32;;
37221;SDS011;23119;51.842;-2.230;2022-12-10T06:41:14;23.13;;;11.15;;
37221;SDS011;23119;51.842;-2.230;2022-12-10T06:43:44;21.05;;;11.18;;
37221;SDS011;23119;51.842;-2.230;2022-12-10T06:46:16;27.08;;;11.65;;
37221;SDS011;23119;51.842;-2.230;2022-12-10T06:48:45;23.73;;;11.30;;
37221;SDS011;23119;51.842;-2.230;2022-12-10T06:51:14;21.00;;;9.52;;
37221;SDS011;23119;51.842;-2.230;2022-12-10T06:53:45;16.02;;;8.10;;
37221;SDS011;23119;51.842;-2.230;2022-12-10T06:56:12;17.92;;;8.45;;
37221;SDS011;23119;51.842;-2.230;2022-12-10T06:58:45;19.58;;;9.15;;
37221;SDS011;23119;51.842;-2.230;2022-12-10T07:01:13;19.80;;;8.60;;
37221;SDS011;23119;51.842;-2.230;2022-12-10T07:03:42;16.77;;;7.60;;
37221;SDS011;23119;51.842;-2.230;2022-12-10T07:06:15;16.40;;;9.25;;
37221;SDS011;23119;51.842;-2.230;2022-12-10T07:08:44;14.18;;;7.20;;
37221;SDS011;23119;51.842;-2.230;2022-12-10T07:11:13;14.80;;;7.30;;
37221;SDS011;23119;51.842;-2.230;2022-12-10T07:13:41;14.45;;;7.07;;
37221;SDS011;23119;51.842;-2.230;2022-12-10T07:16:11;15.00;;;5.80;;
37221;SDS011;23119;51.842;-2.230;2022-12-10T07:18:38;12.57;;;6.03;;
37221;SDS011;23119;51.842;-2.230;2022-12-10T07:21:20;13.48;;;5.38;;
37221;SDS011;23119;51.842;-2.230;2022-12-10T07:23:53;18.02;;;7.90;;
37221;SDS011;23119;51.842;-2.230;2022-12-10T07:26:30;11.38;;;5.38;;
37221;SDS011;23119;51.842;-2.230;2022-12-10T07:29:00;10.15;;;5.00;;
37221;SDS011;23119;51.842;-2.230;2022-12-10T07:31:33;10.43;;;5.05;;
37221;SDS011;23119;51.842;-2.230;2022-12-10T07:33:59;12.55;;;5.53;;
37221;SDS011;23119;51.842;-2.230;2022-12-10T07:36:25;12.80;;;4.40;;
37221;SDS011;23119;51.842;-2.230;2022-12-10T07:38:52;9.98;;;4.40;;
37221;SDS011;23119;51.842;-2.230;2022-12-10T07:41:21;11.65;;;4.80;;
37221;SDS011;23119;51.842;-2.230;2022-12-10T07:43:48;9.38;;;4.78;;
37221;SDS011;23119;51.842;-2.230;2022-12-10T07:46:18;9.80;;;4.72;;
37221;SDS011;23119;51.842;-2.230;2022-12-10T07:48:50;14.68;;;4.50;;
37221;SDS011;23119;51.842;-2.230;2022-12-10T07:51:17;10.30;;;4.28;;
37221;SDS011;23119;51.842;-2.230;2022-12-10T07:53:45;9.32;;;4.03;;
37221;SDS011;23119;51.842;-2.230;2022-12-10T07:56:14;9.40;;;4.47;;
37221;SDS011;23119;51.842;-2.230;2022-12-10T07:58:43;9.85;;;3.58;;
37221;SDS011;23119;51.842;-2.230;2022-12-10T08:01:12;12.35;;;3.72;;
37221;SDS011;23119;51.842;-2.230;2022-12-10T08:03:46;8.40;;;3.00;;
37221;SDS011;23119;51.842;-2.230;2022-12-10T08:06:15;8.13;;;4.15;;
37221;SDS011;23119;51.842;-2.230;2022-12-10T08:08:47;6.90;;;2.38;;
37221;SDS011;23119;51.842;-2.230;2022-12-10T08:11:15;6.45;;;3.25;;
37221;SDS011;23119;51.842;-2.230;2022-12-10T08:13:42;9.00;;;3.40;;
37221;SDS011;23119;51.842;-2.230;2022-12-10T08:16:14;6.32;;;2.85;;
37221;SDS011;23119;51.842;-2.230;2022-12-10T08:18:47;6.55;;;2.30;;
37221;SDS011;23119;51.842;-2.230;2022-12-10T08:21:17;10.15;;;2.75;;
37221;SDS011;23119;51.842;-2.230;2022-12-10T08:23:46;7.72;;;3.33;;
37221;SDS011;23119;51.842;-2.230;2022-12-10T08:28:58;8.30;;;3.42;;
37221;SDS011;23119;51.842;-2.230;2022-12-10T08:31:44;6.90;;;3.00;;
37221;SDS011;23119;51.842;-2.230;2022-12-10T08:34:14;9.90;;;2.97;;
37221;SDS011;23119;51.842;-2.230;2022-12-10T08:36:43;5.57;;;2.95;;
37221;SDS011;23119;51.842;-2.230;2022-12-10T08:39:10;11.07;;;3.28;;
37221;SDS011;23119;51.842;-2.230;2022-12-10T08:41:40;11.02;;;3.22;;
37221;SDS011;23119;51.842;-2.230;2022-12-10T08:44:06;9.02;;;2.80;;
37221;SDS011;23119;51.842;-2.230;2022-12-10T08:46:32;8.15;;;3.45;;
37221;SDS011;23119;51.842;-2.230;2022-12-10T08:48:58;6.60;;;2.70;;
37221;SDS011;23119;51.842;-2.230;2022-12-10T08:51:24;5.32;;;2.63;;
37221;SDS011;23119;51.842;-2.230;2022-12-10T08:53:50;4.75;;;2.60;;
37221;SDS011;23119;51.842;-2.230;2022-12-10T08:56:18;4.80;;;2.45;;
37221;SDS011;23119;51.842;-2.230;2022-12-10T08:58:53;6.65;;;3.22;;
37221;SDS011;23119;51.842;-2.230;2022-12-10T09:01:18;8.05;;;3.08;;
37221;SDS011;23119;51.842;-2.230;2022-12-10T09:03:44;7.75;;;2.10;;
37221;SDS011;23119;51.842;-2.230;2022-12-10T09:06:12;6.18;;;2.55;;
37221;SDS011;23119;51.842;-2.230;2022-12-10T09:08:42;6.35;;;2.58;;
37221;SDS011;23119;51.842;-2.230;2022-12-10T09:11:09;6.07;;;2.53;;
37221;SDS011;23119;51.842;-2.230;2022-12-10T09:13:57;4.43;;;2.05;;
37221;SDS011;23119;51.842;-2.230;2022-12-10T09:16:32;6.32;;;1.90;;
37221;SDS011;23119;51.842;-2.230;2022-12-10T09:19:00;6.30;;;2.05;;
37221;SDS011;23119;51.842;-2.230;2022-12-10T09:21:27;6.32;;;2.05;;
37221;SDS011;23119;51.842;-2.230;2022-12-10T09:23:55;5.80;;;1.95;;
37221;SDS011;23119;51.842;-2.230;2022-12-10T09:26:24;6.50;;;2.33;;
37221;SDS011;23119;51.842;-2.230;2022-12-10T09:28:50;6.72;;;2.50;;
37221;SDS011;23119;51.842;-2.230;2022-12-10T09:31:18;9.38;;;2.33;;
37221;SDS011;23119;51.842;-2.230;2022-12-10T09:33:48;10.77;;;2.50;;
37221;SDS011;23119;51.842;-2.230;2022-12-10T09:36:18;3.60;;;1.80;;
37221;SDS011;23119;51.842;-2.230;2022-12-10T09:38:44;4.80;;;2.20;;
37221;SDS011;23119;51.842;-2.230;2022-12-10T09:46:56;4.07;;;2.78;;
37221;SDS011;23119;51.842;-2.230;2022-12-10T09:52:00;3.72;;;1.05;;
37221;SDS011;23119;51.842;-2.230;2022-12-10T09:54:38;5.32;;;1.23;;
37221;SDS011;23119;51.842;-2.230;2022-12-10T09:59:46;4.65;;;1.30;;
37221;SDS011;23119;51.842;-2.230;2022-12-10T10:02:26;3.35;;;1.10;;
37221;SDS011;23119;51.842;-2.230;2022-12-10T10:05:10;5.53;;;1.27;;
37221;SDS011;23119;51.842;-2.230;2022-12-10T10:10:28;2.45;;;1.05;;
37221;SDS011;23119;51.842;-2.230;2022-12-10T10:15:36;3.20;;;1.42;;
37221;SDS011;23119;51.842;-2.230;2022-12-10T10:21:01;8.95;;;1.60;;
37221;SDS011;23119;51.842;-2.230;2022-12-10T10:23:31;8.30;;;2.10;;
37221;SDS011;23119;51.842;-2.230;2022-12-10T10:25:59;5.25;;;1.50;;
37221;SDS011;23119;51.842;-2.230;2022-12-10T10:28:25;4.80;;;1.50;;
37221;SDS011;23119;51.842;-2.230;2022-12-10T10:30:54;6.50;;;2.00;;
37221;SDS011;23119;51.842;-2.230;2022-12-10T10:33:26;3.50;;;2.47;;
37221;SDS011;23119;51.842;-2.230;2022-12-10T10:35:56;7.57;;;3.03;;
37221;SDS011;23119;51.842;-2.230;2022-12-10T10:40:59;4.95;;;2.40;;
37221;SDS011;23119;51.842;-2.230;2022-12-10T10:43:49;7.55;;;2.72;;
37221;SDS011;23119;51.842;-2.230;2022-12-10T10:46:23;5.68;;;2.67;;
37221;SDS011;23119;51.842;-2.230;2022-12-10T10:48:49;4.60;;;2.22;;
37221;SDS011;23119;51.842;-2.230;2022-12-10T10:51:18;4.70;;;2.22;;
37221;SDS011;23119;51.842;-2.230;2022-12-10T10:53:56;5.13;;;3.25;;
37221;SDS011;23119;51.842;-2.230;2022-12-10T11:04:14;4.30;;;1.73;;
37221;SDS011;23119;51.842;-2.230;2022-12-10T11:06:48;5.40;;;1.52;;
37221;SDS011;23119;51.842;-2.230;2022-12-10T11:09:30;5.50;;;1.42;;
37221;SDS011;23119;51.842;-2.230;2022-12-10T11:12:02;3.53;;;1.48;;
37221;SDS011;23119;51.842;-2.230;2022-12-10T11:14:32;7.38;;;2.13;;
37221;SDS011;23119;51.842;-2.230;2022-12-10T11:25:13;4.68;;;1.23;;
37221;SDS011;23119;51.842;-2.230;2022-12-10T11:42:55;3.17;;;0.80;;
37221;SDS011;23119;51.842;-2.230;2022-12-10T11:48:39;1.73;;;0.82;;
37221;SDS011;23119;51.842;-2.230;2022-12-10T11:51:24;4.28;;;0.90;;
37221;SDS011;23119;51.842;-2.230;2022-12-10T11:56:43;2.55;;;0.60;;
37221;SDS011;23119;51.842;-2.230;2022-12-10T11:59:24;3.20;;;0.90;;
37221;SDS011;23119;51.842;-2.230;2022-12-10T12:05:07;3.25;;;0.80;;
37221;SDS011;23119;51.842;-2.230;2022-12-10T12:10:18;2.60;;;1.00;;
37221;SDS011;23119;51.842;-2.230;2022-12-10T12:13:04;4.72;;;0.80;;
37221;SDS011;23119;51.842;-2.230;2022-12-10T12:16:13;2.40;;;0.80;;
37221;SDS011;23119;51.842;-2.230;2022-12-10T12:21:12;4.03;;;1.10;;
37221;SDS011;23119;51.842;-2.230;2022-12-10T12:23:43;4.30;;;0.90;;
37221;SDS011;23119;51.842;-2.230;2022-12-10T12:26:25;3.80;;;1.73;;
37221;SDS011;23119;51.842;-2.230;2022-12-10T12:29:08;1.90;;;0.80;;
37221;SDS011;23119;51.842;-2.230;2022-12-10T12:32:07;3.47;;;1.35;;
37221;SDS011;23119;51.842;-2.230;2022-12-10T12:37:16;4.95;;;1.08;;
37221;SDS011;23119;51.842;-2.230;2022-12-10T12:42:36;3.92;;;0.82;;
37221;SDS011;23119;51.842;-2.230;2022-12-10T12:48:23;4.40;;;0.90;;
37221;SDS011;23119;51.842;-2.230;2022-12-10T12:51:03;2.50;;;0.80;;
37221;SDS011;23119;51.842;-2.230;2022-12-10T12:53:48;2.17;;;0.80;;
37221;SDS011;23119;51.842;-2.230;2022-12-10T13:04:26;3.40;;;0.98;;
37221;SDS011;23119;51.842;-2.230;2022-12-10T13:09:48;2.70;;;1.00;;
37221;SDS011;23119;51.842;-2.230;2022-12-10T13:12:26;2.70;;;0.95;;
37221;SDS011;23119;51.842;-2.230;2022-12-10T13:17:27;2.40;;;0.93;;
37221;SDS011;23119;51.842;-2.230;2022-12-10T13:23:05;5.45;;;1.25;;
37221;SDS011;23119;51.842;-2.230;2022-12-10T13:28:25;3.15;;;1.00;;
37221;SDS011;23119;51.842;-2.230;2022-12-10T13:36:36;1.60;;;0.60;;
37221;SDS011;23119;51.842;-2.230;2022-12-10T13:44:58;2.85;;;0.80;;
37221;SDS011;23119;51.842;-2.230;2022-12-10T13:47:26;3.47;;;0.80;;
37221;SDS011;23119;51.842;-2.230;2022-12-10T13:50:04;2.45;;;0.80;;
37221;SDS011;23119;51.842;-2.230;2022-12-10T14:01:14;5.85;;;0.80;;
37221;SDS011;23119;51.842;-2.230;2022-12-10T14:06:38;4.07;;;0.65;;
37221;SDS011;23119;51.842;-2.230;2022-12-10T14:12:25;2.95;;;0.70;;
37221;SDS011;23119;51.842;-2.230;2022-12-10T14:15:08;1.20;;;0.50;;
37221;SDS011;23119;51.842;-2.230;2022-12-10T14:17:42;3.35;;;0.63;;
37221;SDS011;23119;51.842;-2.230;2022-12-10T14:20:27;5.95;;;0.50;;
37221;SDS011;23119;51.842;-2.230;2022-12-10T14:23:02;1.13;;;0.40;;
37221;SDS011;23119;51.842;-2.230;2022-12-10T14:25:48;1.77;;;0.40;;
37221;SDS011;23119;51.842;-2.230;2022-12-10T14:28:17;2.20;;;0.50;;
37221;SDS011;23119;51.842;-2.230;2022-12-10T14:30:44;0.95;;;0.32;;
37221;SDS011;23119;51.842;-2.230;2022-12-10T14:33:18;2.92;;;0.55;;
37221;SDS011;23119;51.842;-2.230;2022-12-10T14:35:49;1.95;;;0.40;;
37221;SDS011;23119;51.842;-2.230;2022-12-10T14:38:20;3.30;;;0.40;;
37221;SDS011;23119;51.842;-2.230;2022-12-10T14:41:02;1.67;;;0.40;;
37221;SDS011;23119;51.842;-2.230;2022-12-10T14:43:35;1.88;;;0.43;;
37221;SDS011;23119;51.842;-2.230;2022-12-10T14:46:09;2.00;;;0.30;;
37221;SDS011;23119;51.842;-2.230;2022-12-10T14:48:49;1.73;;;0.38;;
37221;SDS011;23119;51.842;-2.230;2022-12-10T14:51:23;3.60;;;0.60;;
37221;SDS011;23119;51.842;-2.230;2022-12-10T14:58:55;1.90;;;0.50;;
37221;SDS011;23119;51.842;-2.230;2022-12-10T15:01:46;3.38;;;0.63;;
37221;SDS011;23119;51.842;-2.230;2022-12-10T15:04:31;1.10;;;0.40;;
37221;SDS011;23119;51.842;-2.230;2022-12-10T15:07:13;3.83;;;0.57;;
37221;SDS011;23119;51.842;-2.230;2022-12-10T15:09:42;1.63;;;0.57;;
37221;SDS011;23119;51.842;-2.230;2022-12-10T15:12:19;4.13;;;0.60;;
37221;SDS011;23119;51.842;-2.230;2022-12-10T15:14:59;2.45;;;0.73;;
37221;SDS011;23119;51.842;-2.230;2022-12-10T15:17:33;2.97;;;0.75;;
37221;SDS011;23119;51.842;-2.230;2022-12-10T15:20:24;3.05;;;0.85;;
37221;SDS011;23119;51.842;-2.230;2022-12-10T15:23:33;4.60;;;0.98;;
37221;SDS011;23119;51.842;-2.230;2022-12-10T15:26:02;4.35;;;1.42;;
37221;SDS011;23119;51.842;-2.230;2022-12-10T15:28:39;2.30;;;0.93;;
37221;SDS011;23119;51.842;-2.230;2022-12-10T15:31:30;5.10;;;1.10;;
37221;SDS011;23119;51.842;-2.230;2022-12-10T15:34:00;4.78;;;1.02;;
37221;SDS011;23119;51.842;-2.230;2022-12-10T15:36:35;1.80;;;1.00;;
37221;SDS011;23119;51.842;-2.230;2022-12-10T15:41:58;3.25;;;1.00;;
37221;SDS011;23119;51.842;-2.230;2022-12-10T15:44:37;4.05;;;1.05;;
37221;SDS011;23119;51.842;-2.230;2022-12-10T15:47:27;6.68;;;1.75;;
37221;SDS011;23119;51.842;-2.230;2022-12-10T15:49:54;4.07;;;0.95;;
37221;SDS011;23119;51.842;-2.230;2022-12-10T15:52:28;3.30;;;1.00;;
37221;SDS011;23119;51.842;-2.230;2022-12-10T15:54:55;9.90;;;1.15;;
37221;SDS011;23119;51.842;-2.230;2022-12-10T15:57:28;2.60;;;1.02;;
37221;SDS011;23119;51.842;-2.230;2022-12-10T16:00:06;6.78;;;1.10;;
37221;SDS011;23119;51.842;-2.230;2022-12-10T16:05:23;5.13;;;1.02;;
37221;SDS011;23119;51.842;-2.230;2022-12-10T16:07:49;4.63;;;1.00;;
37221;SDS011;23119;51.842;-2.230;2022-12-10T16:10:20;2.70;;;0.93;;
37221;SDS011;23119;51.842;-2.230;2022-12-10T16:12:48;3.63;;;1.00;;
37221;SDS011;23119;51.842;-2.230;2022-12-10T16:15:34;3.50;;;0.90;;
37221;SDS011;23119;51.842;-2.230;2022-12-10T16:18:12;5.78;;;1.30;;
37221;SDS011;23119;51.842;-2.230;2022-12-10T16:20:38;4.20;;;0.80;;
37221;SDS011;23119;51.842;-2.230;2022-12-10T16:23:04;3.63;;;0.90;;
37221;SDS011;23119;51.842;-2.230;2022-12-10T16:25:42;2.97;;;1.10;;
37221;SDS011;23119;51.842;-2.230;2022-12-10T16:28:15;3.38;;;1.13;;
37221;SDS011;23119;51.842;-2.230;2022-12-10T16:30:47;4.55;;;1.27;;
37221;SDS011;23119;51.842;-2.230;2022-12-10T16:33:21;4.32;;;1.27;;
37221;SDS011;23119;51.842;-2.230;2022-12-10T16:35:54;3.55;;;0.90;;
37221;SDS011;23119;51.842;-2.230;2022-12-10T16:38:23;3.47;;;1.02;;
37221;SDS011;23119;51.842;-2.230;2022-12-10T16:40:49;3.65;;;0.75;;
37221;SDS011;23119;51.842;-2.230;2022-12-10T16:43:22;2.65;;;0.80;;
37221;SDS011;23119;51.842;-2.230;2022-12-10T16:45:50;1.52;;;0.70;;
37221;SDS011;23119;51.842;-2.230;2022-12-10T16:48:16;3.00;;;0.90;;
37221;SDS011;23119;51.842;-2.230;2022-12-10T16:50:45;4.80;;;0.95;;
37221;SDS011;23119;51.842;-2.230;2022-12-10T16:53:19;1.55;;;0.63;;
37221;SDS011;23119;51.842;-2.230;2022-12-10T16:55:51;3.88;;;0.80;;
37221;SDS011;23119;51.842;-2.230;2022-12-10T16:58:20;2.72;;;0.80;;
37221;SDS011;23119;51.842;-2.230;2022-12-10T17:00:54;1.60;;;0.77;;
37221;SDS011;23119;51.842;-2.230;2022-12-10T17:03:24;2.03;;;0.70;;
37221;SDS011;23119;51.842;-2.230;2022-12-10T17:05:55;1.20;;;0.55;;
37221;SDS011;23119;51.842;-2.230;2022-12-10T17:08:31;2.15;;;1.00;;
37221;SDS011;23119;51.842;-2.230;2022-12-10T17:11:04;2.70;;;0.80;;
37221;SDS011;23119;51.842;-2.230;2022-12-10T17:14:17;2.67;;;0.90;;
37221;SDS011;23119;51.842;-2.230;2022-12-10T17:16:50;3.58;;;0.80;;
37221;SDS011;23119;51.842;-2.230;2022-12-10T17:19:25;2.80;;;1.10;;
37221;SDS011;23119;51.842;-2.230;2022-12-10T17:21:55;3.15;;;0.80;;
37221;SDS011;23119;51.842;-2.230;2022-12-10T17:24:23;3.63;;;1.00;;
37221;SDS011;23119;51.842;-2.230;2022-12-10T17:26:54;3.38;;;0.90;;
37221;SDS011;23119;51.842;-2.230;2022-12-10T17:29:31;1.70;;;0.80;;
37221;SDS011;23119;51.842;-2.230;2022-12-10T17:32:00;1.77;;;0.80;;
37221;SDS011;23119;51.842;-2.230;2022-12-10T17:34:27;2.42;;;0.70;;
37221;SDS011;23119;51.842;-2.230;2022-12-10T17:36:53;4.15;;;0.93;;
37221;SDS011;23119;51.842;-2.230;2022-12-10T17:39:20;2.55;;;1.20;;
37221;SDS011;23119;51.842;-2.230;2022-12-10T17:41:54;2.58;;;1.00;;